createdAt,value
2022-11-29T00:00:52.135Z,94340.09
2022-11-29T00:03:20.445Z,94333.84
2022-11-29T00:05:47.940Z,94336.50
2022-11-29T00:08:15.529Z,94326.94
2022-11-29T00:10:41.975Z,94328.59
2022-11-29T00:13:08.389Z,94321.69
2022-11-29T00:15:34.784Z,94331.22
2022-11-29T00:18:01.200Z,94330.41
2022-11-29T00:20:28.468Z,94331.88
2022-11-29T00:22:56.065Z,94326.44
2022-11-29T00:25:23.658Z,94327.44
2022-11-29T00:27:50.235Z,94325.63
2022-11-29T00:30:18.841Z,94327.44
2022-11-29T00:32:45.416Z,94316.91
2022-11-29T00:35:13.025Z,94323.81
2022-11-29T00:37:39.445Z,94318.75
2022-11-29T00:40:06.196Z,94318.41
2022-11-29T00:42:33.792Z,94318.91
2022-11-29T00:45:00.379Z,94311.97
2022-11-29T00:47:28.028Z,94317.25
2022-11-29T00:49:54.864Z,94321.66
2022-11-29T00:52:22.247Z,94319.03
2022-11-29T00:54:48.815Z,94321.53
2022-11-29T00:57:15.259Z,94318.22
2022-11-29T00:59:41.680Z,94316.41
2022-11-29T01:02:08.152Z,94311.16
2022-11-29T01:04:34.580Z,94311.16
2022-11-29T01:07:01.751Z,94310.53
2022-11-29T01:09:28.315Z,94309.19
2022-11-29T01:11:54.912Z,94312.97
2022-11-29T01:14:21.367Z,94316.56
2022-11-29T01:16:48.158Z,94326.44
2022-11-29T01:19:15.675Z,94319.56
2022-11-29T01:21:42.264Z,94322.47
2022-11-29T01:24:08.851Z,94319.38
2022-11-29T01:26:35.442Z,94322.31
2022-11-29T01:29:01.856Z,94314.91
2022-11-29T01:31:28.639Z,94321.97
2022-11-29T01:33:55.238Z,94320.50
2022-11-29T01:36:21.822Z,94314.25
2022-11-29T01:38:48.396Z,94316.06
2022-11-29T01:41:15.003Z,94319.00
2022-11-29T01:43:41.597Z,94322.63
2022-11-29T01:46:08.203Z,94319.16
2022-11-29T01:48:35.776Z,94314.72
2022-11-29T01:51:03.368Z,94320.00
2022-11-29T01:53:30.980Z,94316.72
2022-11-29T01:55:57.583Z,94316.72
2022-11-29T01:58:24.131Z,94319.50
2022-11-29T02:00:50.730Z,94315.06
2022-11-29T02:03:18.322Z,94309.00
2022-11-29T02:05:46.918Z,94312.44
2022-11-29T02:08:13.513Z,94314.91
2022-11-29T02:10:41.107Z,94307.66
2022-11-29T02:13:07.554Z,94305.03
2022-11-29T02:15:34.362Z,94304.06
2022-11-29T02:18:01.886Z,94297.97
2022-11-29T02:20:28.476Z,94306.69
2022-11-29T02:22:55.061Z,94298.13
2022-11-29T02:25:21.519Z,94299.16
2022-11-29T02:27:47.940Z,94298.47
2022-11-29T02:30:14.354Z,94293.22
2022-11-29T02:32:40.782Z,94293.38
2022-11-29T02:35:08.039Z,94294.84
2022-11-29T02:37:34.655Z,94289.75
2022-11-29T02:40:01.207Z,94295.34
2022-11-29T02:42:27.827Z,94292.72
2022-11-29T02:44:54.399Z,94297.81
2022-11-29T02:47:20.997Z,94301.91
2022-11-29T02:49:48.621Z,94301.91
2022-11-29T02:52:15.071Z,94304.34
2022-11-29T02:54:41.994Z,94310.91
2022-11-29T02:57:09.370Z,94303.84
2022-11-29T02:59:35.977Z,94304.84
2022-11-29T03:02:02.555Z,94309.09
2022-11-29T03:04:29.151Z,94315.88
2022-11-29T03:06:55.594Z,94318.31
2022-11-29T03:09:23.348Z,94315.53
2022-11-29T03:11:49.920Z,94306.66
2022-11-29T03:14:18.538Z,94307.16
2022-11-29T03:16:45.119Z,94319.31
2022-11-29T03:19:12.717Z,94313.75
2022-11-29T03:21:40.305Z,94317.19
2022-11-29T03:24:06.902Z,94309.47
2022-11-29T03:26:33.362Z,94316.19
2022-11-29T03:29:00.087Z,94310.78
2022-11-29T03:31:26.730Z,94315.06
2022-11-29T03:33:54.269Z,94314.91
2022-11-29T03:36:20.675Z,94315.72
2022-11-29T03:38:47.458Z,94319.00
2022-11-29T03:41:14.038Z,94319.16
2022-11-29T03:43:40.628Z,94321.97
2022-11-29T03:46:08.265Z,94317.69
2022-11-29T03:48:35.819Z,94318.34
2022-11-29T03:51:02.404Z,94321.16
2022-11-29T03:53:31.012Z,94325.59
2022-11-29T03:55:57.432Z,94320.00
2022-11-29T03:58:24.160Z,94314.88
2022-11-29T04:00:51.782Z,94310.44
2022-11-29T04:03:18.345Z,94316.69
2022-11-29T04:05:44.945Z,94322.78
2022-11-29T04:08:11.550Z,94317.66
2022-11-29T04:10:39.132Z,94317.66
2022-11-29T04:13:06.757Z,94319.47
2022-11-29T04:15:33.183Z,94323.09
2022-11-29T04:17:59.599Z,94321.13
2022-11-29T04:20:26.124Z,94312.25
2022-11-29T04:22:52.522Z,94321.78
2022-11-29T04:25:18.976Z,94320.81
2022-11-29T04:27:45.438Z,94316.38
2022-11-29T04:30:12.900Z,94321.63
2022-11-29T04:32:39.486Z,94324.09
2022-11-29T04:35:06.077Z,94327.38
2022-11-29T04:37:32.679Z,94327.22
2022-11-29T04:39:59.261Z,94332.50
2022-11-29T04:42:25.856Z,94337.75
2022-11-29T04:44:52.433Z,94333.13
2022-11-29T04:47:19.260Z,94334.09
2022-11-29T04:49:45.672Z,94333.31
2022-11-29T04:52:12.087Z,94334.09
2022-11-29T04:54:38.823Z,94345.63
2022-11-29T04:57:05.403Z,94342.00
2022-11-29T04:59:31.998Z,94342.00
2022-11-29T05:01:59.633Z,94335.75
2022-11-29T05:04:27.205Z,94339.22
2022-11-29T05:06:53.789Z,94337.25
2022-11-29T05:09:20.388Z,94346.44
2022-11-29T05:11:46.987Z,94343.53
2022-11-29T05:14:13.568Z,94340.41
2022-11-29T05:16:40.164Z,94348.28
2022-11-29T05:19:06.765Z,94346.63
2022-11-29T05:21:33.338Z,94346.63
2022-11-29T05:23:59.930Z,94344.84
2022-11-29T05:26:26.518Z,94346.16
2022-11-29T05:28:53.122Z,94353.19
2022-11-29T05:31:20.757Z,94351.41
2022-11-29T05:33:48.323Z,94354.84
2022-11-29T05:36:14.768Z,94354.84
2022-11-29T05:38:41.499Z,94355.00
2022-11-29T05:41:07.941Z,94362.25
2022-11-29T05:43:34.709Z,94358.13
2022-11-29T05:46:01.374Z,94359.94
2022-11-29T05:48:28.878Z,94362.56
2022-11-29T05:50:56.484Z,94359.94
2022-11-29T05:53:24.073Z,94361.59
2022-11-29T05:55:50.669Z,94370.59
2022-11-29T05:58:17.274Z,94369.63
2022-11-29T06:00:43.696Z,94374.88
2022-11-29T06:03:10.453Z,94369.97
2022-11-29T06:05:38.026Z,94373.41
2022-11-29T06:08:04.445Z,94375.84
2022-11-29T06:10:31.229Z,94374.06
2022-11-29T06:12:57.798Z,94369.81
2022-11-29T06:15:24.396Z,94377.69
2022-11-29T06:17:51.975Z,94372.44
2022-11-29T06:20:18.578Z,94376.88
2022-11-29T06:22:45.139Z,94379.50
2022-11-29T06:25:11.743Z,94374.22
2022-11-29T06:27:39.327Z,94385.38
2022-11-29T06:30:05.972Z,94380.31
2022-11-29T06:32:32.570Z,94383.09
2022-11-29T06:34:59.159Z,94394.59
2022-11-29T06:37:25.750Z,94396.25
2022-11-29T06:39:52.337Z,94394.44
2022-11-29T06:42:18.931Z,94402.97
2022-11-29T06:44:45.674Z,94403.97
2022-11-29T06:47:13.119Z,94400.19
2022-11-29T06:49:39.708Z,94399.66
2022-11-29T06:52:06.309Z,94397.84
2022-11-29T06:54:34.008Z,94405.06
2022-11-29T06:57:00.439Z,94404.25
2022-11-29T06:59:27.085Z,94403.25
2022-11-29T07:01:54.691Z,94405.88
2022-11-29T07:04:21.167Z,94407.53
2022-11-29T07:06:47.599Z,94406.72
2022-11-29T07:09:14.031Z,94404.75
2022-11-29T07:11:40.454Z,94407.38
2022-11-29T07:14:06.888Z,94410.84
2022-11-29T07:16:33.464Z,94415.13
2022-11-29T07:18:59.899Z,94421.19
2022-11-29T07:21:27.375Z,94414.94
2022-11-29T07:23:53.986Z,94414.94
2022-11-29T07:26:20.600Z,94423.00
2022-11-29T07:28:47.183Z,94419.56
2022-11-29T07:31:13.663Z,94420.38
2022-11-29T07:33:40.180Z,94422.31
2022-11-29T07:36:06.612Z,94419.38
2022-11-29T07:38:33.576Z,94423.50
2022-11-29T07:41:00.022Z,94421.34
2022-11-29T07:43:26.741Z,94427.13
2022-11-29T07:45:53.351Z,94428.63
2022-11-29T07:48:19.939Z,94432.41
2022-11-29T07:50:46.535Z,94428.31
2022-11-29T07:53:13.141Z,94435.91
2022-11-29T07:55:39.783Z,94433.75
2022-11-29T07:58:06.372Z,94434.59
2022-11-29T08:00:33.003Z,94427.66
2022-11-29T08:03:00.552Z,94439.84
2022-11-29T08:05:27.160Z,94432.13
2022-11-29T08:07:54.804Z,94435.09
2022-11-29T08:10:21.252Z,94435.09
2022-11-29T08:12:47.701Z,94442.19
2022-11-29T08:15:14.150Z,94441.88
2022-11-29T08:17:41.110Z,94439.06
2022-11-29T08:20:07.707Z,94438.28
2022-11-29T08:22:34.282Z,94442.22
2022-11-29T08:25:00.920Z,94438.13
2022-11-29T08:27:28.446Z,94446.00
2022-11-29T08:29:55.091Z,94450.47
2022-11-29T08:32:21.549Z,94444.69
2022-11-29T08:34:48.167Z,94444.56
2022-11-29T08:37:15.828Z,94443.06
2022-11-29T08:39:42.462Z,94442.88
2022-11-29T08:42:09.009Z,94445.72
2022-11-29T08:44:36.633Z,94454.59
2022-11-29T08:47:03.249Z,94453.13
2022-11-29T08:49:30.819Z,94457.22
2022-11-29T08:51:57.310Z,94463.97
2022-11-29T08:54:23.765Z,94462.81
2022-11-29T08:57:23.669Z,94462.66
2022-11-29T08:59:37.262Z,94461.66
2022-11-29T09:02:03.887Z,94469.06
2022-11-29T09:04:30.380Z,94459.34
2022-11-29T09:06:57.095Z,94473.34
2022-11-29T09:09:23.686Z,94471.53
2022-11-29T09:11:50.265Z,94473.03
2022-11-29T09:14:16.921Z,94472.00
2022-11-29T09:16:43.549Z,94467.56
2022-11-29T09:19:11.150Z,94480.59
2022-11-29T09:21:38.750Z,94477.94
2022-11-29T09:24:05.182Z,94471.69
2022-11-29T09:26:31.740Z,94476.63
2022-11-29T09:28:59.585Z,94482.56
2022-11-29T09:31:27.245Z,94483.69
2022-11-29T09:33:54.757Z,94480.72
2022-11-29T09:36:28.115Z,94487.31
2022-11-29T09:38:55.990Z,94489.44
2022-11-29T09:41:23.568Z,94492.56
2022-11-29T09:43:50.166Z,94496.50
2022-11-29T09:46:16.810Z,94488.09
2022-11-29T09:48:43.395Z,94491.69
2022-11-29T09:51:10.967Z,94493.19
2022-11-29T09:53:37.567Z,94492.66
2022-11-29T09:56:05.170Z,94491.69
2022-11-29T09:58:34.084Z,94488.88
2022-11-29T10:01:01.462Z,94499.06
2022-11-29T10:03:28.968Z,94494.47
2022-11-29T10:05:55.563Z,94498.66
2022-11-29T10:08:22.422Z,94503.09
2022-11-29T10:10:49.765Z,94499.31
2022-11-29T10:13:16.316Z,94499.13
2022-11-29T10:15:42.802Z,94497.31
2022-11-29T10:18:09.211Z,94500.31
2022-11-29T10:20:40.482Z,94502.78
2022-11-29T10:23:09.030Z,94498.81
2022-11-29T10:25:36.460Z,94501.09
2022-11-29T10:28:04.057Z,94491.88
2022-11-29T10:30:30.730Z,94491.69
2022-11-29T10:32:58.264Z,94488.72
2022-11-29T10:35:25.856Z,94488.22
2022-11-29T10:38:22.751Z,94483.59
2022-11-29T10:40:38.890Z,94493.16
2022-11-29T10:43:05.768Z,94489.72
2022-11-29T10:45:32.364Z,94484.59
2022-11-29T10:47:58.976Z,94493.84
2022-11-29T10:50:26.547Z,94489.06
2022-11-29T10:52:57.166Z,94492.72
2022-11-29T10:55:26.748Z,94487.13
2022-11-29T10:57:54.366Z,94486.78
2022-11-29T11:00:21.983Z,94485.97
2022-11-29T11:02:49.058Z,94487.47
2022-11-29T11:05:15.593Z,94475.13
2022-11-29T11:07:42.097Z,94480.75
2022-11-29T11:10:08.562Z,94473.34
2022-11-29T11:12:35.024Z,94474.34
2022-11-29T11:15:01.463Z,94474.34
2022-11-29T11:17:27.926Z,94473.97
2022-11-29T11:19:54.753Z,94477.44
2022-11-29T11:22:22.327Z,94478.13
2022-11-29T11:24:48.925Z,94473.66
2022-11-29T11:27:15.516Z,94475.13
2022-11-29T11:29:42.110Z,94476.13
2022-11-29T11:32:09.720Z,94476.78
2022-11-29T11:34:36.313Z,94479.41
2022-11-29T11:37:02.897Z,94480.91
2022-11-29T11:39:29.489Z,94477.91
2022-11-29T11:41:57.084Z,94476.28
2022-11-29T11:44:46.524Z,94477.09
2022-11-29T11:47:10.396Z,94478.44
2022-11-29T11:49:37.483Z,94478.44
2022-11-29T11:52:04.616Z,94478.75
2022-11-29T11:54:32.210Z,94475.63
2022-11-29T11:57:00.804Z,94475.16
2022-11-29T11:59:29.485Z,94476.81
2022-11-29T12:02:01.998Z,94482.41
2022-11-29T12:04:30.721Z,94472.69
2022-11-29T12:06:58.300Z,94486.19
2022-11-29T12:09:26.955Z,94482.72
2022-11-29T12:11:55.542Z,94485.16
2022-11-29T12:14:25.023Z,94487.00
2022-11-29T12:16:53.681Z,94493.72
2022-11-29T12:19:22.303Z,94483.84
2022-11-29T12:21:51.325Z,94488.78
2022-11-29T12:24:19.489Z,94493.22
2022-11-29T12:26:57.045Z,94484.50
2022-11-29T12:29:28.775Z,94485.97
2022-11-29T12:31:59.808Z,94488.63
2022-11-29T12:34:31.359Z,94486.31
2022-11-29T12:36:58.556Z,94489.75
2022-11-29T12:39:27.778Z,94486.81
2022-11-29T12:42:04.429Z,94491.09
2022-11-29T12:44:42.817Z,94492.56
2022-11-29T12:47:35.098Z,94493.53
2022-11-29T12:49:58.730Z,94493.38
2022-11-29T12:52:27.334Z,94491.56
2022-11-29T12:54:56.531Z,94490.75
2022-11-29T12:57:25.494Z,94491.56
2022-11-29T13:00:00.555Z,94499.31
2022-11-29T13:02:27.949Z,94497.31
2022-11-29T13:05:00.038Z,94492.03
2022-11-29T13:07:29.011Z,94500.47
2022-11-29T13:10:11.403Z,94502.75
2022-11-29T13:12:41.294Z,94493.69
2022-11-29T13:15:08.905Z,94496.50
2022-11-29T13:17:36.434Z,94501.75
2022-11-29T13:20:11.165Z,94494.69
2022-11-29T13:22:47.192Z,94496.50
2022-11-29T13:25:31.435Z,94501.75
2022-11-29T13:27:58.958Z,94496.97
2022-11-29T13:30:30.183Z,94500.25
2022-11-29T13:33:08.205Z,94499.13
2022-11-29T13:35:45.370Z,94497.16
2022-11-29T13:43:59.890Z,94495.66
2022-11-29T13:46:37.265Z,94497.00
2022-11-29T13:49:10.460Z,94498.50
2022-11-29T13:57:03.087Z,94497.66
2022-11-29T13:59:32.312Z,94502.31
2022-11-29T14:02:03.250Z,94508.22
2022-11-29T14:07:53.003Z,94513.16
2022-11-29T14:10:09.290Z,94514.00
2022-11-29T14:13:00.773Z,94513.50
2022-11-29T14:15:35.472Z,94509.38
2022-11-29T14:18:04.224Z,94512.00
2022-11-29T14:20:41.935Z,94517.13
2022-11-29T14:23:23.581Z,94514.16
2022-11-29T14:25:52.264Z,94511.19
2022-11-29T14:28:19.569Z,94511.19
2022-11-29T14:30:46.174Z,94512.03
2022-11-29T14:33:12.637Z,94514.31
2022-11-29T14:35:39.383Z,94510.84
2022-11-29T14:38:06.994Z,94513.31
2022-11-29T14:40:33.435Z,94516.78
2022-11-29T14:43:00.170Z,94513.00
2022-11-29T14:45:26.778Z,94513.47
2022-11-29T14:47:53.385Z,94511.88
2022-11-29T14:50:19.942Z,94514.34
2022-11-29T14:52:46.353Z,94515.31
2022-11-29T14:55:12.797Z,94514.50
2022-11-29T14:57:39.754Z,94518.13
2022-11-29T15:00:06.349Z,94520.94
2022-11-29T15:02:32.971Z,94518.97
2022-11-29T15:05:00.563Z,94525.38
2022-11-29T15:07:28.201Z,94525.22
2022-11-29T15:09:57.167Z,94525.00
2022-11-29T15:12:26.459Z,94524.19
2022-11-29T15:14:53.909Z,94522.84
2022-11-29T15:17:20.531Z,94525.78
2022-11-29T15:19:47.114Z,94527.56
2022-11-29T15:22:13.742Z,94530.06
2022-11-29T15:24:40.663Z,94534.47
2022-11-29T15:27:07.909Z,94535.94
2022-11-29T15:29:35.529Z,94537.38
2022-11-29T15:32:01.999Z,94538.69
2022-11-29T15:34:28.452Z,94537.69
2022-11-29T15:36:54.964Z,94538.47
2022-11-29T15:39:21.882Z,94536.47
2022-11-29T15:41:48.504Z,94539.75
2022-11-29T15:44:16.054Z,94539.22
2022-11-29T15:46:43.634Z,94540.53
2022-11-29T15:49:10.232Z,94539.34
2022-11-29T15:51:36.834Z,94541.44
2022-11-29T15:54:12.641Z,94531.25
2022-11-29T15:56:41.092Z,94542.91
2022-11-29T15:59:08.710Z,94539.78
2022-11-29T16:01:36.274Z,94546.00
2022-11-29T16:04:02.883Z,94543.84
2022-11-29T16:06:29.878Z,94535.59
2022-11-29T16:08:56.409Z,94540.19
2022-11-29T16:11:22.866Z,94545.91
2022-11-29T16:13:50.223Z,94545.41
2022-11-29T16:16:18.887Z,94549.31
2022-11-29T16:18:45.354Z,94552.75
2022-11-29T16:21:12.015Z,94554.03
2022-11-29T16:23:39.620Z,94555.19
2022-11-29T16:26:06.481Z,94556.16
2022-11-29T16:28:32.953Z,94559.44
2022-11-29T16:30:59.470Z,94553.06
2022-11-29T16:33:25.967Z,94556.38
2022-11-29T16:35:52.563Z,94555.38
2022-11-29T16:38:19.188Z,94552.59
2022-11-29T16:40:46.774Z,94561.03
2022-11-29T16:43:13.350Z,94560.19
2022-11-29T16:45:39.987Z,94556.75
2022-11-29T16:48:06.567Z,94561.16
2022-11-29T16:50:33.025Z,94556.56
2022-11-29T16:52:59.496Z,94553.94
2022-11-29T16:55:25.991Z,94548.69
2022-11-29T16:57:52.497Z,94553.78
2022-11-29T17:00:18.943Z,94552.13
2022-11-29T17:02:45.410Z,94553.13
2022-11-29T17:05:11.854Z,94558.06
2022-11-29T17:07:38.311Z,94558.91
2022-11-29T17:10:04.897Z,94559.25
2022-11-29T17:12:33.508Z,94560.91
2022-11-29T17:15:00.180Z,94560.59
2022-11-29T17:17:26.659Z,94561.25
2022-11-29T17:19:54.356Z,94566.03
2022-11-29T17:22:21.922Z,94565.06
2022-11-29T17:24:48.793Z,94567.56
2022-11-29T17:27:16.143Z,94563.91
2022-11-29T17:29:42.745Z,94567.91
2022-11-29T17:32:09.433Z,94571.19
2022-11-29T17:34:36.934Z,94569.09
2022-11-29T17:37:03.524Z,94574.03
2022-11-29T17:39:30.096Z,94577.81
2022-11-29T17:41:56.699Z,94577.81
2022-11-29T17:44:23.281Z,94577.81
2022-11-29T17:46:49.874Z,94575.06
2022-11-29T17:49:17.483Z,94581.63
2022-11-29T17:51:53.148Z,94583.28
2022-11-29T17:54:19.996Z,94583.00
2022-11-29T17:56:46.424Z,94587.72
2022-11-29T17:59:13.932Z,94590.06
2022-11-29T18:01:43.021Z,94590.69
2022-11-29T18:04:10.308Z,94590.69
2022-11-29T18:06:36.950Z,94586.28
2022-11-29T18:09:03.549Z,94591.88
2022-11-29T18:11:31.190Z,94595.88
2022-11-29T18:13:57.671Z,94588.41
2022-11-29T18:16:24.173Z,94599.63
2022-11-29T18:18:50.687Z,94592.84
2022-11-29T18:21:17.100Z,94602.72
2022-11-29T18:23:43.544Z,94597.25
2022-11-29T18:26:10.792Z,94602.19
2022-11-29T18:28:37.380Z,94599.41
2022-11-29T18:31:04.092Z,94604.69
2022-11-29T18:33:31.582Z,94603.69
2022-11-29T18:35:59.171Z,94608.63
2022-11-29T18:38:26.813Z,94604.06
2022-11-29T18:40:54.401Z,94602.94
2022-11-29T18:43:20.997Z,94605.22
2022-11-29T18:45:47.659Z,94601.63
2022-11-29T18:48:15.219Z,94604.94
2022-11-29T18:50:41.676Z,94600.47
2022-11-29T18:53:09.450Z,94597.69
2022-11-29T18:55:36.253Z,94601.16
2022-11-29T18:58:04.553Z,94593.88
2022-11-29T19:00:31.191Z,94598.31
2022-11-29T19:02:58.750Z,94602.94
2022-11-29T19:05:26.353Z,94601.28
2022-11-29T19:07:52.986Z,94602.94
2022-11-29T19:10:20.538Z,94614.28
2022-11-29T19:12:47.141Z,94609.00
2022-11-29T19:15:15.731Z,94606.38
2022-11-29T19:17:43.495Z,94615.75
2022-11-29T19:20:10.954Z,94605.91
2022-11-29T19:22:37.393Z,94610.69
2022-11-29T19:25:03.811Z,94609.88
2022-11-29T19:27:30.286Z,94608.53
2022-11-29T19:29:56.716Z,94616.44
2022-11-29T19:32:23.158Z,94619.72
2022-11-29T19:34:50.496Z,94618.09
2022-11-29T19:37:18.090Z,94616.25
2022-11-29T19:39:46.076Z,94616.94
2022-11-29T19:42:13.266Z,94619.41
2022-11-29T19:45:14.946Z,94614.66
2022-11-29T19:47:26.549Z,94615.63
2022-11-29T19:49:55.809Z,94615.63
2022-11-29T19:52:24.349Z,94619.56
2022-11-29T19:54:51.327Z,94622.34
2022-11-29T19:57:17.931Z,94617.25
2022-11-29T19:59:45.724Z,94613.94
2022-11-29T20:02:14.220Z,94620.03
2022-11-29T20:04:41.726Z,94617.25
2022-11-29T20:07:09.311Z,94619.34
2022-11-29T20:09:35.907Z,94622.81
2022-11-29T20:12:03.485Z,94624.63
2022-11-29T20:14:30.086Z,94626.28
2022-11-29T20:16:56.678Z,94629.41
2022-11-29T20:19:24.277Z,94628.59
2022-11-29T20:21:50.870Z,94628.59
2022-11-29T20:24:18.465Z,94622.34
2022-11-29T20:26:45.349Z,94629.09
2022-11-29T20:29:12.663Z,94629.25
2022-11-29T20:31:44.339Z,94622.03
2022-11-29T20:34:14.845Z,94624.66
2022-11-29T20:36:41.421Z,94624.13
2022-11-29T20:39:09.027Z,94624.13
2022-11-29T20:41:35.627Z,94624.13
2022-11-29T20:44:03.207Z,94624.13
2022-11-29T20:46:29.871Z,94629.94
2022-11-29T20:49:01.677Z,94629.09
2022-11-29T20:51:32.030Z,94632.72
2022-11-29T20:53:58.634Z,94633.53
2022-11-29T20:56:26.220Z,94634.84
2022-11-29T20:58:52.804Z,94633.03
2022-11-29T21:01:19.469Z,94634.66
2022-11-29T21:03:47.048Z,94636.66
2022-11-29T21:06:14.597Z,94633.19
2022-11-29T21:08:42.202Z,94633.88
2022-11-29T21:11:09.799Z,94632.84
2022-11-29T21:13:36.397Z,94631.88
2022-11-29T21:16:03.393Z,94630.09
2022-11-29T21:18:29.890Z,94637.81
2022-11-29T21:20:56.396Z,94637.81
2022-11-29T21:23:23.775Z,94638.81
2022-11-29T21:25:51.343Z,94637.00
2022-11-29T21:28:18.929Z,94639.47
2022-11-29T21:30:46.523Z,94636.03
2022-11-29T21:33:13.119Z,94635.19
2022-11-29T21:35:39.569Z,94639.31
2022-11-29T21:38:06.019Z,94642.75
2022-11-29T21:40:32.420Z,94638.47
2022-11-29T21:42:58.848Z,94634.03
2022-11-29T21:45:25.282Z,94636.16
2022-11-29T21:47:51.665Z,94640.31
2022-11-29T21:50:18.200Z,94629.78
2022-11-29T21:52:44.644Z,94638.81
2022-11-29T21:55:11.993Z,94635.03
2022-11-29T21:57:38.778Z,94632.56
2022-11-29T22:00:05.201Z,94642.25
2022-11-29T22:02:31.684Z,94636.84
2022-11-29T22:04:58.220Z,94635.03
2022-11-29T22:07:24.704Z,94636.84
2022-11-29T22:09:51.134Z,94635.69
2022-11-29T22:12:33.663Z,94641.78
2022-11-29T22:15:01.203Z,94634.72
2022-11-29T22:17:27.753Z,94639.00
2022-11-29T22:19:54.180Z,94641.78
2022-11-29T22:22:20.604Z,94647.88
2022-11-29T22:24:47.317Z,94646.22
2022-11-29T22:27:13.933Z,94638.47
2022-11-29T22:29:40.340Z,94644.88
2022-11-29T22:32:06.731Z,94643.56
2022-11-29T22:34:33.139Z,94641.75
2022-11-29T22:36:59.512Z,94642.72
2022-11-29T22:39:25.909Z,94641.91
2022-11-29T22:41:54.733Z,94636.66
2022-11-29T22:44:21.675Z,94638.31
2022-11-29T22:46:48.136Z,94645.50
2022-11-29T22:49:14.712Z,94647.31
2022-11-29T22:51:41.261Z,94645.38
2022-11-29T22:54:07.679Z,94645.50
2022-11-29T22:56:34.091Z,94646.34
2022-11-29T22:59:00.486Z,94648.97
2022-11-29T23:01:26.883Z,94644.84
2022-11-29T23:03:53.278Z,94643.84
2022-11-29T23:06:19.726Z,94645.84
2022-11-29T23:08:46.130Z,94642.19
2022-11-29T23:11:12.941Z,94649.25
2022-11-29T23:13:39.345Z,94644.69
2022-11-29T23:16:05.774Z,94642.72
2022-11-29T23:18:32.200Z,94634.00
2022-11-29T23:20:59.315Z,94643.72
2022-11-29T23:23:25.907Z,94639.63
2022-11-29T23:25:52.493Z,94636.50
2022-11-29T23:28:19.077Z,94643.22
2022-11-29T23:30:45.680Z,94639.91
2022-11-29T23:33:12.215Z,94645.03
2022-11-29T23:35:38.656Z,94646.00
2022-11-29T23:38:05.076Z,94640.59
2022-11-29T23:40:32.029Z,94637.97
2022-11-29T23:42:58.627Z,94643.38
2022-11-29T23:45:25.217Z,94639.91
2022-11-29T23:47:51.809Z,94640.56
2022-11-29T23:50:19.410Z,94630.84
2022-11-29T23:52:45.999Z,94634.50
2022-11-29T23:55:12.434Z,94638.91
2022-11-29T23:57:38.827Z,94637.94
